Time;durP1;ratioP1;P1;durP2;ratioP2;P2;SDS_P1;SDS_P2;PMS_P1;PMS_P2;Temp;Humidity;BMP_temperature;BMP_pressure;BME280_temperature;BME280_humidity;BME280_pressure;Samples;Min_cycle;Max_cycle;Signal;HPM_P1;HPM_P2
2022/10/18 00:00:40;;;;;;;38.40;25.30;;;11.80;99.90;;;;;;5120373;27;20435;-72
2022/10/18 00:03:05;;;;;;;34.53;21.70;;;11.80;99.90;;;;;;5138946;27;20175;-72
2022/10/18 00:05:31;;;;;;;34.33;22.23;;;11.70;99.90;;;;;;5138569;27;20195;-72
2022/10/18 00:07:57;;;;;;;32.93;20.67;;;11.70;99.90;;;;;;5138650;27;20243;-73
2022/10/18 00:10:25;;;;;;;39.30;24.07;;;11.60;99.90;;;;;;5120299;27;20454;-72
2022/10/18 00:12:51;;;;;;;38.25;21.50;;;11.60;99.90;;;;;;5138704;27;20236;-72
2022/10/18 00:15:17;;;;;;;39.43;22.60;;;11.60;99.90;;;;;;5120020;27;20218;-74
2022/10/18 00:17:42;;;;;;;30.60;20.77;;;11.50;99.90;;;;;;5138739;27;20194;-72
2022/10/18 00:20:09;;;;;;;32.33;22.70;;;11.50;99.90;;;;;;5138310;27;20703;-72
2022/10/18 00:22:38;;;;;;;33.15;21.50;;;11.50;99.90;;;;;;5120030;27;20183;-73
2022/10/18 00:25:05;;;;;;;33.88;21.48;;;11.40;99.90;;;;;;5137875;27;20796;-72
2022/10/18 00:27:31;;;;;;;32.45;21.38;;;11.40;99.90;;;;;;5138326;27;20183;-72
2022/10/18 00:29:57;;;;;;;34.25;22.25;;;11.40;99.90;;;;;;5138000;27;20195;-72
2022/10/18 00:32:23;;;;;;;37.37;23.30;;;11.40;99.90;;;;;;5138366;27;20242;-72
2022/10/18 00:34:49;;;;;;;40.75;22.83;;;11.40;99.90;;;;;;5119603;27;20210;-72
2022/10/18 00:37:15;;;;;;;34.77;22.40;;;11.30;99.90;;;;;;5138027;27;20182;-72
2022/10/18 00:39:41;;;;;;;33.73;21.47;;;11.30;99.90;;;;;;5138125;27;20227;-72
2022/10/18 00:42:09;;;;;;;36.40;22.70;;;11.30;99.90;;;;;;5138086;27;20578;-73
2022/10/18 00:44:37;;;;;;;38.25;23.60;;;11.30;99.90;;;;;;5137958;27;20421;-72
2022/10/18 00:47:07;;;;;;;33.70;23.13;;;11.30;99.90;;;;;;5119261;27;20223;-72
2022/10/18 00:49:36;;;;;;;31.60;22.65;;;11.20;99.90;;;;;;5137830;27;20211;-72
2022/10/18 00:52:09;;;;;;;33.15;22.77;;;11.20;99.90;;;;;;5137799;27;20531;-72
2022/10/18 00:54:39;;;;;;;34.20;22.67;;;11.10;99.90;;;;;;5137773;27;20581;-73
2022/10/18 00:57:06;;;;;;;36.10;23.17;;;11.10;99.90;;;;;;5119305;27;20176;-72
2022/10/18 00:59:32;;;;;;;33.00;22.70;;;11.10;99.90;;;;;;5137729;27;20246;-72
2022/10/18 01:01:58;;;;;;;40.60;26.48;;;11.00;99.90;;;;;;5119169;27;20248;-72
2022/10/18 01:04:24;;;;;;;42.93;26.93;;;11.00;99.90;;;;;;5119190;27;20187;-72
2022/10/18 01:06:56;;;;;;;36.65;27.30;;;11.00;99.90;;;;;;5117930;28;20210;-72
2022/10/18 01:09:37;;;;;;;37.95;26.65;;;11.00;99.90;;;;;;5118841;27;20228;-72
2022/10/18 01:12:12;;;;;;;40.15;24.75;;;11.00;99.90;;;;;;5137517;27;20636;-72
2022/10/18 01:14:37;;;;;;;42.75;24.95;;;10.90;99.90;;;;;;5118867;27;20243;-72
2022/10/18 01:17:13;;;;;;;35.90;23.50;;;10.90;99.90;;;;;;5118904;27;20571;-72
2022/10/18 01:19:47;;;;;;;37.53;22.83;;;10.80;99.90;;;;;;5118858;27;20194;-72
2022/10/18 01:22:21;;;;;;;33.15;23.38;;;10.80;99.90;;;;;;5137231;27;20712;-72
2022/10/18 01:24:52;;;;;;;33.05;22.55;;;10.80;99.90;;;;;;5137136;27;20230;-72
2022/10/18 01:27:49;;;;;;;33.97;23.30;;;10.80;99.90;;;;;;5136957;27;20175;-72
2022/10/18 01:30:36;;;;;;;38.15;24.75;;;10.70;99.90;;;;;;5136870;27;20667;-72
2022/10/18 01:33:11;;;;;;;38.50;23.88;;;10.70;99.90;;;;;;5118626;27;20511;-72
2022/10/18 01:35:41;;;;;;;39.85;23.98;;;10.70;99.90;;;;;;5118494;27;20214;-73
2022/10/18 01:38:11;;;;;;;32.67;21.70;;;10.70;99.90;;;;;;5137198;27;20182;-73
2022/10/18 01:40:41;;;;;;;35.42;23.50;;;10.70;99.90;;;;;;5136949;27;20187;-73
2022/10/18 01:43:09;;;;;;;33.65;21.33;;;10.60;99.90;;;;;;5137133;27;20635;-72
2022/10/18 01:45:34;;;;;;;35.70;23.48;;;10.60;99.90;;;;;;5136728;27;20671;-72
2022/10/18 01:48:01;;;;;;;38.73;21.97;;;10.60;99.90;;;;;;5118232;27;20214;-72
2022/10/18 01:50:30;;;;;;;32.03;21.92;;;10.60;99.90;;;;;;5136478;27;20232;-72
2022/10/18 01:52:56;;;;;;;34.17;22.38;;;10.50;99.90;;;;;;5136867;27;20179;-72
2022/10/18 01:55:50;;;;;;;34.35;23.05;;;10.50;99.90;;;;;;5118097;27;20214;-72
2022/10/18 01:58:28;;;;;;;34.47;21.65;;;10.50;99.90;;;;;;5135562;27;20232;-72
2022/10/18 02:01:17;;;;;;;31.67;21.92;;;10.50;99.90;;;;;;5118004;27;20195;-72
2022/10/18 02:03:46;;;;;;;32.60;21.00;;;10.50;99.90;;;;;;5118167;27;20231;-72
2022/10/18 02:06:25;;;;;;;32.95;22.83;;;10.40;99.90;;;;;;5117675;27;20195;-72
2022/10/18 02:09:03;;;;;;;32.45;21.17;;;10.40;99.90;;;;;;5136628;27;20533;-72
2022/10/18 02:11:30;;;;;;;33.65;22.25;;;10.40;99.90;;;;;;5117755;27;20239;-72
2022/10/18 02:14:04;;;;;;;35.42;23.38;;;10.40;99.90;;;;;;5117976;27;20186;-72
2022/10/18 02:17:05;;;;;;;37.00;22.48;;;10.30;99.90;;;;;;5117714;27;20218;-72
2022/10/18 02:19:40;;;;;;;32.08;22.58;;;10.30;99.90;;;;;;5130648;27;20214;-72
2022/10/18 02:22:07;;;;;;;29.77;20.85;;;10.20;99.90;;;;;;5117632;27;20175;-73
2022/10/18 02:24:37;;;;;;;30.70;21.38;;;10.20;99.90;;;;;;5136272;27;20359;-72
2022/10/18 02:27:03;;;;;;;26.58;19.63;;;10.20;99.90;;;;;;5135906;27;20175;-72
2022/10/18 02:29:30;;;;;;;28.20;18.33;;;10.20;99.90;;;;;;5117259;27;20195;-72
2022/10/18 02:32:11;;;;;;;28.02;19.02;;;10.10;99.90;;;;;;5135854;27;20460;-72
2022/10/18 02:34:58;;;;;;;24.77;17.88;;;10.10;99.90;;;;;;5135704;27;20205;-72
2022/10/18 02:37:31;;;;;;;28.27;19.05;;;10.10;99.90;;;;;;5117437;27;20636;-72
2022/10/18 02:39:57;;;;;;;26.85;17.75;;;10.10;99.90;;;;;;5135674;27;20183;-72
2022/10/18 02:42:22;;;;;;;21.90;18.53;;;10.10;99.90;;;;;;5135782;27;20211;-72
2022/10/18 02:44:48;;;;;;;21.70;17.00;;;10.10;99.90;;;;;;5117194;27;20631;-72
2022/10/18 02:47:13;;;;;;;26.43;16.97;;;10.10;99.90;;;;;;5135363;27;20182;-72
2022/10/18 02:49:39;;;;;;;23.83;16.90;;;10.00;99.90;;;;;;5135466;27;20195;-72
2022/10/18 02:52:05;;;;;;;24.60;17.20;;;10.00;99.90;;;;;;5117094;27;20164;-72
2022/10/18 02:54:31;;;;;;;23.30;17.30;;;10.00;99.90;;;;;;5135473;27;20828;-72
2022/10/18 02:56:56;;;;;;;24.00;18.33;;;10.00;99.90;;;;;;5135408;27;20459;-72
2022/10/18 02:59:22;;;;;;;25.20;18.30;;;9.90;99.90;;;;;;5135322;27;20171;-72
2022/10/18 03:01:47;;;;;;;31.93;19.30;;;9.90;99.90;;;;;;5116908;27;20175;-72
2022/10/18 03:04:13;;;;;;;22.17;17.77;;;9.80;99.90;;;;;;5135109;27;20640;-72
2022/10/18 03:06:39;;;;;;;24.53;18.63;;;9.80;99.90;;;;;;5116653;27;20171;-72
2022/10/18 03:09:05;;;;;;;25.17;17.87;;;9.70;99.90;;;;;;5135454;27;20222;-72
2022/10/18 03:11:31;;;;;;;24.48;18.25;;;9.70;99.90;;;;;;5135091;27;20671;-73
2022/10/18 03:13:57;;;;;;;60.20;29.27;;;9.60;99.90;;;;;;5135572;27;20189;-72
2022/10/18 03:16:23;;;;;;;42.07;23.50;;;9.60;99.90;;;;;;5134934;27;20478;-72
2022/10/18 03:18:49;;;;;;;85.80;33.75;;;9.60;99.90;;;;;;5134958;27;20167;-72
2022/10/18 03:21:15;;;;;;;46.03;25.73;;;9.60;99.90;;;;;;5134904;27;20199;-72
2022/10/18 03:23:41;;;;;;;46.83;25.30;;;9.50;99.90;;;;;;5135082;27;20183;-72
2022/10/18 03:26:07;;;;;;;39.53;23.90;;;9.50;99.90;;;;;;5116469;27;20187;-72
2022/10/18 03:28:32;;;;;;;31.45;18.45;;;9.50;99.90;;;;;;5116406;27;20179;-72
2022/10/18 03:31:00;;;;;;;31.60;18.40;;;9.50;99.90;;;;;;5133914;27;20630;-72
2022/10/18 03:33:26;;;;;;;27.00;17.67;;;9.50;99.90;;;;;;5134948;27;20175;-72
2022/10/18 03:35:52;;;;;;;26.83;18.67;;;9.50;99.90;;;;;;5116214;27;20215;-72
2022/10/18 03:38:17;;;;;;;26.43;18.73;;;9.50;99.90;;;;;;5134993;27;20179;-72
2022/10/18 03:40:43;;;;;;;21.93;16.80;;;9.50;99.90;;;;;;5116304;28;20187;-72
2022/10/18 03:43:08;;;;;;;24.43;17.57;;;9.50;99.90;;;;;;5134985;27;20262;-72
2022/10/18 03:45:34;;;;;;;28.77;17.50;;;9.50;99.90;;;;;;5134630;27;20195;-72
2022/10/18 03:47:59;;;;;;;23.90;18.37;;;9.50;99.90;;;;;;5134378;28;20582;-72
2022/10/18 03:50:25;;;;;;;25.77;17.40;;;9.50;99.90;;;;;;5134503;27;20244;-72
2022/10/18 03:52:52;;;;;;;22.57;17.40;;;9.50;99.90;;;;;;5115926;28;20187;-72
2022/10/18 03:55:18;;;;;;;24.35;17.95;;;9.40;99.90;;;;;;5134468;27;20203;-72
2022/10/18 03:57:44;;;;;;;28.50;17.70;;;9.40;99.90;;;;;;5116109;28;20182;-72
2022/10/18 04:00:10;;;;;;;25.73;16.87;;;9.30;99.90;;;;;;5134528;27;20191;-72
2022/10/18 04:02:35;;;;;;;25.35;18.00;;;9.30;99.90;;;;;;5134517;28;20183;-72
2022/10/18 04:05:01;;;;;;;26.20;19.30;;;9.30;99.90;;;;;;5134476;27;20195;-72
2022/10/18 04:07:26;;;;;;;25.20;18.43;;;9.20;99.90;;;;;;5134414;28;20171;-72
2022/10/18 04:09:52;;;;;;;25.40;18.03;;;9.20;99.90;;;;;;5115953;28;20191;-72
2022/10/18 04:12:18;;;;;;;23.67;17.63;;;9.20;99.90;;;;;;5133927;28;20267;-72
2022/10/18 04:14:43;;;;;;;26.63;17.17;;;9.30;99.90;;;;;;5115856;28;20198;-72
2022/10/18 04:17:09;;;;;;;22.63;16.73;;;9.30;99.90;;;;;;5134411;28;20183;-72
2022/10/18 04:19:34;;;;;;;22.87;15.40;;;9.30;99.90;;;;;;5134332;28;20187;-72
2022/10/18 04:22:00;;;;;;;22.80;16.13;;;9.30;99.90;;;;;;5115556;28;20171;-72
2022/10/18 04:24:26;;;;;;;23.60;16.97;;;9.30;99.90;;;;;;5095310;28;20247;-72
2022/10/18 04:26:51;;;;;;;24.13;17.10;;;9.30;99.90;;;;;;5113861;28;20411;-72
2022/10/18 04:29:17;;;;;;;27.70;18.70;;;9.30;99.90;;;;;;5095296;28;20180;-72
2022/10/18 04:31:42;;;;;;;29.20;19.37;;;9.30;99.90;;;;;;5103087;28;20587;-72
2022/10/18 04:34:09;;;;;;;27.07;18.30;;;9.30;99.90;;;;;;5124001;28;20639;-72
2022/10/18 04:36:35;;;;;;;29.85;20.40;;;9.30;99.90;;;;;;5103540;28;20200;-72
2022/10/18 04:39:00;;;;;;;34.50;20.17;;;9.30;99.90;;;;;;5123246;28;20273;-72
2022/10/18 04:41:26;;;;;;;35.00;21.57;;;9.40;99.90;;;;;;5107556;27;20187;-73
2022/10/18 04:43:51;;;;;;;31.10;19.17;;;9.40;99.90;;;;;;5138481;27;20249;-73
2022/10/18 04:46:17;;;;;;;32.40;19.80;;;9.40;99.90;;;;;;5119389;27;20191;-73
2022/10/18 04:48:43;;;;;;;27.77;19.17;;;9.50;99.90;;;;;;5119263;27;20639;-73
2022/10/18 04:51:08;;;;;;;34.73;19.97;;;9.50;99.90;;;;;;5137602;27;20210;-72
2022/10/18 04:53:34;;;;;;;34.97;20.63;;;9.50;99.90;;;;;;5119513;27;20224;-72
2022/10/18 04:55:59;;;;;;;27.63;18.30;;;9.60;99.90;;;;;;5119217;27;20243;-72
2022/10/18 04:58:25;;;;;;;32.27;20.47;;;9.60;99.90;;;;;;5138056;27;20172;-72
2022/10/18 05:00:50;;;;;;;38.53;20.07;;;9.60;99.90;;;;;;5118429;27;20210;-72
2022/10/18 05:03:16;;;;;;;30.30;19.30;;;9.60;99.90;;;;;;5137809;27;20258;-72
2022/10/18 05:05:44;;;;;;;29.33;19.17;;;9.60;99.90;;;;;;5119216;27;20195;-73
2022/10/18 05:08:09;;;;;;;29.02;19.65;;;9.70;99.90;;;;;;5118889;27;20267;-72
2022/10/18 05:10:35;;;;;;;28.40;18.63;;;9.70;99.90;;;;;;5137434;27;20211;-72
2022/10/18 05:13:00;;;;;;;23.17;16.80;;;9.80;99.90;;;;;;5137462;27;20187;-72
2022/10/18 05:15:26;;;;;;;29.20;18.60;;;9.80;99.90;;;;;;5137430;27;20206;-70
2022/10/18 05:17:51;;;;;;;26.60;18.80;;;9.80;99.90;;;;;;5137563;27;20179;-69
2022/10/18 05:20:17;;;;;;;32.43;18.83;;;9.90;99.90;;;;;;5118659;27;20286;-70
2022/10/18 05:22:43;;;;;;;32.93;18.53;;;9.90;99.90;;;;;;5118905;27;20222;-70
2022/10/18 05:25:08;;;;;;;24.47;17.00;;;10.00;99.90;;;;;;5114399;28;20273;-70
2022/10/18 05:27:34;;;;;;;32.30;20.10;;;10.00;99.90;;;;;;5114634;28;20270;-70
2022/10/18 05:30:00;;;;;;;38.30;20.53;;;10.10;99.90;;;;;;5116002;28;20239;-70
2022/10/18 05:32:25;;;;;;;32.20;20.20;;;10.10;99.90;;;;;;5112183;28;20667;-70
2022/10/18 05:34:51;;;;;;;35.77;20.23;;;10.10;99.90;;;;;;5115446;28;20204;-70
2022/10/18 05:37:20;;;;;;;35.37;20.80;;;10.10;99.90;;;;;;5116246;28;20184;-70
2022/10/18 05:39:46;;;;;;;25.20;18.88;;;10.10;99.90;;;;;;5114940;28;20218;-70
2022/10/18 05:42:11;;;;;;;31.67;19.27;;;10.10;99.90;;;;;;5115677;28;20649;-70
2022/10/18 05:44:37;;;;;;;28.73;18.50;;;10.10;99.90;;;;;;5114962;28;20657;-70
2022/10/18 05:47:02;;;;;;;32.57;19.33;;;10.10;99.90;;;;;;5116169;28;20179;-70
2022/10/18 05:49:28;;;;;;;27.50;18.57;;;10.10;99.90;;;;;;5115136;28;20232;-70
2022/10/18 05:51:53;;;;;;;34.50;20.53;;;10.10;99.90;;;;;;5111621;28;20582;-70
2022/10/18 05:54:19;;;;;;;37.47;22.30;;;10.20;99.90;;;;;;5110763;28;20546;-70
2022/10/18 05:56:45;;;;;;;29.73;19.17;;;10.20;99.90;;;;;;5111517;28;20203;-68
2022/10/18 05:59:11;;;;;;;31.40;19.47;;;10.30;99.90;;;;;;5113496;28;20663;-67
2022/10/18 06:01:38;;;;;;;34.37;18.87;;;10.30;99.90;;;;;;5111037;28;20414;-67
2022/10/18 06:04:04;;;;;;;31.70;20.17;;;10.40;99.90;;;;;;5110549;28;20182;-68
2022/10/18 06:06:31;;;;;;;30.55;20.98;;;10.50;99.90;;;;;;5112768;28;20245;-68
2022/10/18 06:08:56;;;;;;;31.45;20.65;;;10.50;99.90;;;;;;5113307;28;20204;-69
2022/10/18 06:11:22;;;;;;;32.30;19.20;;;10.60;99.90;;;;;;5109539;28;20276;-68
2022/10/18 06:13:50;;;;;;;30.20;19.63;;;10.60;99.90;;;;;;5105750;28;20270;-70
2022/10/18 06:16:18;;;;;;;28.55;19.88;;;10.70;99.90;;;;;;5102662;28;20468;-70
2022/10/18 06:18:47;;;;;;;32.03;20.05;;;10.80;99.90;;;;;;5102942;28;20180;-72
2022/10/18 06:21:13;;;;;;;40.60;22.30;;;10.80;99.90;;;;;;5102492;28;20250;-73
2022/10/18 06:23:39;;;;;;;37.77;23.53;;;10.90;99.90;;;;;;5114726;27;20644;-72
2022/10/18 06:26:06;;;;;;;28.30;18.90;;;11.00;99.90;;;;;;5133023;27;20660;-73
2022/10/18 06:28:33;;;;;;;33.47;20.05;;;11.10;99.90;;;;;;5112477;27;20419;-71
2022/10/18 06:30:59;;;;;;;25.15;18.17;;;11.20;99.90;;;;;;5112457;27;20830;-73
2022/10/18 06:33:25;;;;;;;25.93;18.93;;;11.30;99.90;;;;;;5113329;27;20191;-74
2022/10/18 06:35:59;;;;;;;27.60;16.80;;;11.40;99.90;;;;;;5126098;27;20472;-73
2022/10/18 06:38:25;;;;;;;27.38;19.80;;;11.50;99.90;;;;;;5112461;27;20646;-73
2022/10/18 06:40:51;;;;;;;26.70;19.17;;;11.60;99.90;;;;;;5129017;27;20199;-72
2022/10/18 06:43:17;;;;;;;31.88;18.23;;;11.70;99.90;;;;;;5113037;27;20278;-73
2022/10/18 06:45:42;;;;;;;28.43;18.67;;;11.90;99.90;;;;;;5119067;27;20262;-73
2022/10/18 06:48:08;;;;;;;30.77;19.17;;;12.00;99.90;;;;;;5121030;27;20187;-75
2022/10/18 06:50:34;;;;;;;26.60;17.33;;;12.10;99.90;;;;;;5109718;27;20248;-74
2022/10/18 06:53:01;;;;;;;22.40;17.40;;;12.20;99.90;;;;;;5125473;27;20261;-73
2022/10/18 06:55:27;;;;;;;22.77;16.17;;;12.30;99.90;;;;;;5108471;27;20692;-72
2022/10/18 06:57:52;;;;;;;24.20;18.53;;;12.40;99.90;;;;;;5123589;27;20512;-71
2022/10/18 07:00:18;;;;;;;22.57;17.87;;;12.50;99.90;;;;;;5121190;27;20202;-72
2022/10/18 07:02:43;;;;;;;27.40;18.30;;;12.60;99.90;;;;;;5112537;27;20624;-70
2022/10/18 07:05:10;;;;;;;24.77;17.70;;;12.80;99.90;;;;;;5108907;28;20195;-72
2022/10/18 07:07:36;;;;;;;25.90;17.40;;;12.80;99.90;;;;;;5111354;27;20198;-73
2022/10/18 07:10:02;;;;;;;23.57;17.13;;;13.00;99.90;;;;;;5128025;27;20435;-73
2022/10/18 07:12:27;;;;;;;22.80;15.63;;;13.10;99.90;;;;;;5127671;27;20175;-73
2022/10/18 07:14:53;;;;;;;25.90;18.03;;;13.20;99.90;;;;;;5125714;27;20490;-73
2022/10/18 07:17:19;;;;;;;21.47;16.13;;;13.30;99.90;;;;;;5129520;27;20340;-74
2022/10/18 07:19:45;;;;;;;24.57;15.10;;;13.50;99.90;;;;;;5123061;27;21240;-72
2022/10/18 07:22:10;;;;;;;26.10;14.60;;;13.50;99.90;;;;;;5129503;27;20179;-75
2022/10/18 07:24:36;;;;;;;21.83;14.93;;;13.60;99.90;;;;;;5129737;27;20340;-74
2022/10/18 07:27:02;;;;;;;18.90;14.27;;;13.80;99.90;;;;;;5109302;28;20660;-73
2022/10/18 07:29:27;;;;;;;14.87;12.00;;;13.90;99.90;;;;;;5111610;27;20198;-73
2022/10/18 07:31:53;;;;;;;13.67;11.80;;;14.10;99.90;;;;;;5112294;27;20395;-73
2022/10/18 07:34:19;;;;;;;19.10;13.83;;;14.30;99.90;;;;;;5113170;27;20182;-73
2022/10/18 07:36:44;;;;;;;21.07;13.70;;;14.40;99.90;;;;;;5118986;27;20460;-72
2022/10/18 07:39:10;;;;;;;14.50;12.17;;;14.70;99.90;;;;;;5128712;27;20186;-73
2022/10/18 07:41:36;;;;;;;13.80;11.77;;;15.00;99.90;;;;;;5114261;28;20197;-73
2022/10/18 07:44:02;;;;;;;12.70;10.57;;;15.40;99.90;;;;;;5120704;28;20214;-74
2022/10/18 07:46:28;;;;;;;16.50;11.00;;;15.90;99.90;;;;;;5128000;28;20193;-73
2022/10/18 07:48:54;;;;;;;13.60;10.40;;;16.50;99.90;;;;;;5128865;28;20543;-71
2022/10/18 07:51:20;;;;;;;14.43;11.20;;;17.30;99.90;;;;;;5129667;27;20205;-71
2022/10/18 07:53:46;;;;;;;12.30;10.20;;;18.20;99.90;;;;;;5124223;28;20769;-71
2022/10/18 07:56:19;;;;;;;13.87;11.80;;;19.10;99.90;;;;;;5110396;28;20525;-70
2022/10/18 07:58:46;;;;;;;14.00;11.17;;;20.00;99.90;;;;;;5128490;28;20521;-72
2022/10/18 08:01:13;;;;;;;14.20;10.30;;;20.80;99.90;;;;;;5124149;28;20514;-72
2022/10/18 08:03:39;;;;;;;14.00;9.60;;;21.30;99.90;;;;;;5111045;28;20441;-72
2022/10/18 08:06:10;;;;;;;12.30;10.50;;;21.70;99.90;;;;;;5118197;27;20558;-72
2022/10/18 08:08:37;;;;;;;13.17;10.60;;;22.00;99.90;;;;;;5108528;28;20470;-74
2022/10/18 08:11:09;;;;;;;10.10;8.50;;;22.30;99.60;;;;;;5126506;28;20443;-77
2022/10/18 08:13:35;;;;;;;13.03;9.60;;;22.70;98.60;;;;;;5125191;28;20462;-67
2022/10/18 08:16:05;;;;;;;10.80;9.77;;;23.00;98.20;;;;;;5123230;27;20502;-71
2022/10/18 08:18:31;;;;;;;11.33;10.10;;;23.50;97.70;;;;;;5131817;27;20180;-68
2022/10/18 08:21:01;;;;;;;10.27;9.27;;;24.10;96.50;;;;;;5132732;27;20979;-70
2022/10/18 08:23:27;;;;;;;11.53;9.13;;;24.70;95.70;;;;;;5131577;27;20492;-71
2022/10/18 08:25:53;;;;;;;12.23;9.43;;;25.20;94.30;;;;;;5114804;27;20455;-70
2022/10/18 08:28:18;;;;;;;10.50;9.37;;;25.60;93.30;;;;;;5129127;27;20193;-70
2022/10/18 08:30:44;;;;;;;9.00;7.70;;;25.90;91.10;;;;;;5111098;28;20447;-68
2022/10/18 08:33:10;;;;;;;9.87;8.63;;;26.10;91.00;;;;;;5113322;27;20190;-73
2022/10/18 08:35:35;;;;;;;9.20;8.07;;;26.30;90.70;;;;;;5131705;27;20579;-74
2022/10/18 08:38:01;;;;;;;9.47;8.50;;;26.60;90.30;;;;;;5115119;27;20186;-72
2022/10/18 08:40:27;;;;;;;10.57;8.10;;;26.60;88.50;;;;;;5122874;27;20285;-73
2022/10/18 08:43:06;;;;;;;10.27;8.90;;;26.20;88.60;;;;;;5131201;27;20194;-73
2022/10/18 08:45:35;;;;;;;10.93;8.67;;;25.50;88.60;;;;;;5132167;27;21024;-72
2022/10/18 08:48:04;;;;;;;9.50;8.60;;;24.80;89.70;;;;;;5115705;27;20926;-71
2022/10/18 08:50:35;;;;;;;10.40;8.80;;;24.20;90.10;;;;;;5132201;27;20481;-72
2022/10/18 08:53:25;;;;;;;11.60;8.90;;;23.70;91.00;;;;;;5129473;27;20519;-76
2022/10/18 08:56:02;;;;;;;10.60;8.93;;;23.20;91.60;;;;;;5128383;27;20490;-70
2022/10/18 08:58:32;;;;;;;12.10;9.47;;;23.00;92.20;;;;;;5108742;27;21298;-72
2022/10/18 09:01:07;;;;;;;10.83;8.93;;;22.80;92.10;;;;;;5124154;27;20422;-73
2022/10/18 09:04:07;;;;;;;10.37;9.13;;;22.50;92.20;;;;;;5130850;27;20978;-73
2022/10/18 09:06:57;;;;;;;10.50;8.60;;;22.10;92.60;;;;;;5132407;27;20465;-71
2022/10/18 09:09:39;;;;;;;12.97;9.10;;;21.80;93.00;;;;;;5112638;27;20939;-71
2022/10/18 09:12:16;;;;;;;8.70;7.70;;;21.50;93.00;;;;;;5134711;27;20484;-71
2022/10/18 09:15:00;;;;;;;9.80;8.17;;;21.20;93.90;;;;;;5127319;27;20434;-70
2022/10/18 09:17:36;;;;;;;9.20;8.07;;;21.00;93.60;;;;;;5126582;27;20474;-72
2022/10/18 09:20:08;;;;;;;9.63;8.03;;;20.80;93.80;;;;;;5124167;27;20434;-74
2022/10/18 09:23:05;;;;;;;8.70;7.80;;;20.60;94.20;;;;;;5124823;27;20439;-77
2022/10/18 09:25:48;;;;;;;8.80;7.97;;;20.40;94.50;;;;;;5107963;28;20479;-71
2022/10/18 09:28:32;;;;;;;9.57;8.40;;;20.30;95.00;;;;;;5105716;28;20460;-74
2022/10/18 09:31:11;;;;;;;8.67;7.87;;;20.20;95.70;;;;;;5109199;28;20534;-73
2022/10/18 09:33:52;;;;;;;10.00;8.50;;;20.20;95.20;;;;;;5103751;28;20452;-71
2022/10/18 09:36:21;;;;;;;9.67;7.73;;;20.30;95.20;;;;;;5102759;28;20515;-73
2022/10/18 09:38:58;;;;;;;12.40;7.97;;;20.60;94.70;;;;;;5103207;28;20882;-72
2022/10/18 09:41:28;;;;;;;7.67;6.97;;;20.80;94.60;;;;;;5105571;28;20485;-74
2022/10/18 09:44:09;;;;;;;9.50;7.70;;;21.00;94.70;;;;;;5109314;28;20431;-73
2022/10/18 09:46:42;;;;;;;10.60;7.87;;;20.90;94.70;;;;;;5102212;28;21158;-73
2022/10/18 09:49:32;;;;;;;8.13;6.80;;;20.80;94.30;;;;;;5104380;28;20444;-73
2022/10/18 09:52:02;;;;;;;9.27;6.87;;;20.70;94.40;;;;;;5109301;28;20408;-76
2022/10/18 09:54:42;;;;;;;8.00;6.93;;;20.60;95.40;;;;;;5108697;28;20514;-74
2022/10/18 09:57:27;;;;;;;9.37;7.23;;;20.60;95.10;;;;;;5108843;28;20459;-76
2022/10/18 09:59:53;;;;;;;8.73;7.30;;;20.60;95.10;;;;;;5102737;28;20433;-70
2022/10/18 10:02:22;;;;;;;10.30;7.57;;;20.50;95.30;;;;;;5098969;28;20489;-70
2022/10/18 10:04:55;;;;;;;11.40;7.87;;;20.50;95.30;;;;;;5108402;28;20195;-73
2022/10/18 10:07:26;;;;;;;8.00;7.20;;;20.50;94.90;;;;;;5096492;27;20442;-72
2022/10/18 10:10:06;;;;;;;9.27;6.40;;;20.50;95.40;;;;;;5102758;28;20423;-69
2022/10/18 10:12:33;;;;;;;12.10;7.13;;;20.40;94.50;;;;;;5095134;28;20424;-70
2022/10/18 10:15:19;;;;;;;7.70;6.77;;;20.50;94.70;;;;;;5102268;28;20978;-69
2022/10/18 10:18:20;;;;;;;9.40;6.07;;;20.50;94.40;;;;;;5111435;28;20470;-71
2022/10/18 10:20:50;;;;;;;10.53;6.93;;;20.60;94.30;;;;;;5096252;28;20433;-73
2022/10/18 10:23:27;;;;;;;11.53;6.90;;;20.60;94.20;;;;;;5109752;28;20431;-70
2022/10/18 10:26:00;;;;;;;8.00;5.73;;;20.60;94.00;;;;;;5102199;27;20558;-72
2022/10/18 10:28:30;;;;;;;5.93;4.80;;;20.70;93.90;;;;;;5107731;28;20520;-70
2022/10/18 10:31:15;;;;;;;6.90;6.17;;;20.70;93.60;;;;;;5107678;28;20428;-74
2022/10/18 10:33:45;;;;;;;6.80;5.20;;;20.70;93.10;;;;;;5092856;28;20532;-73
2022/10/18 10:36:19;;;;;;;6.03;5.10;;;20.70;92.60;;;;;;5106878;28;20502;-73
2022/10/18 10:38:45;;;;;;;8.73;5.90;;;20.80;92.50;;;;;;5107806;27;20424;-73
2022/10/18 10:41:20;;;;;;;7.70;4.47;;;20.80;92.40;;;;;;5110096;28;20428;-73
2022/10/18 10:43:47;;;;;;;6.20;4.13;;;20.80;90.60;;;;;;5106438;28;20428;-72
2022/10/18 10:46:17;;;;;;;4.73;4.30;;;20.70;89.90;;;;;;5109043;28;20587;-72
2022/10/18 10:48:53;;;;;;;6.47;4.23;;;20.80;90.10;;;;;;5106219;28;20442;-72
2022/10/18 10:51:35;;;;;;;5.83;3.93;;;20.80;90.10;;;;;;5106626;28;20493;-74
2022/10/18 10:54:21;;;;;;;8.10;4.40;;;20.80;89.10;;;;;;5107335;28;20444;-73
2022/10/18 10:57:02;;;;;;;4.67;4.10;;;20.80;89.60;;;;;;5102156;28;20497;-73
2022/10/18 10:59:38;;;;;;;6.97;5.50;;;20.80;88.80;;;;;;5110346;28;20805;-72
2022/10/18 11:02:13;;;;;;;5.40;4.27;;;20.90;90.00;;;;;;5107908;28;20404;-73
2022/10/18 11:04:40;;;;;;;5.10;4.57;;;20.90;89.10;;;;;;5107987;28;20483;-72
2022/10/18 11:07:08;;;;;;;5.50;4.60;;;21.00;86.30;;;;;;5106509;28;20934;-75
2022/10/18 11:10:01;;;;;;;5.13;3.83;;;21.00;85.00;;;;;;5107134;28;20958;-74
2022/10/18 11:12:38;;;;;;;4.80;4.30;;;21.00;86.80;;;;;;5107866;28;20531;-73
2022/10/18 11:15:12;;;;;;;5.13;4.63;;;21.10;85.90;;;;;;5107055;28;20526;-74
2022/10/18 11:17:55;;;;;;;4.73;4.20;;;21.10;86.40;;;;;;5108423;28;20939;-74
2022/10/18 11:20:40;;;;;;;5.80;4.83;;;21.20;87.30;;;;;;5107192;28;20454;-74
2022/10/18 11:23:11;;;;;;;4.50;4.10;;;21.20;87.50;;;;;;5105747;28;20428;-74
2022/10/18 11:25:58;;;;;;;5.53;4.80;;;21.30;87.30;;;;;;5107739;28;20579;-73
2022/10/18 11:28:35;;;;;;;4.90;4.37;;;21.30;85.90;;;;;;5107787;28;20966;-76
2022/10/18 11:31:10;;;;;;;9.10;4.90;;;21.40;87.40;;;;;;5106040;28;20559;-74
2022/10/18 11:33:50;;;;;;;5.33;4.83;;;21.40;87.30;;;;;;5102130;28;21022;-73
2022/10/18 11:36:24;;;;;;;4.73;4.33;;;21.50;88.40;;;;;;5108937;28;20503;-75
2022/10/18 11:39:05;;;;;;;5.37;4.87;;;21.50;88.70;;;;;;5106846;28;20423;-76
2022/10/18 11:41:38;;;;;;;7.47;4.63;;;21.50;87.90;;;;;;5103633;28;20483;-76
2022/10/18 11:44:56;;;;;;;5.77;4.50;;;21.50;88.40;;;;;;5108092;28;20423;-75
2022/10/18 11:47:39;;;;;;;7.53;4.20;;;21.50;87.60;;;;;;5054727;28;20436;-72
2022/10/18 11:50:27;;;;;;;7.63;4.53;;;21.50;87.50;;;;;;5104201;28;20435;-74
2022/10/18 11:53:06;;;;;;;7.40;4.57;;;21.60;88.00;;;;;;5103566;28;20428;-74
2022/10/18 11:56:01;;;;;;;5.87;3.93;;;21.50;88.00;;;;;;5094237;28;20469;-75
2022/10/18 11:58:33;;;;;;;4.50;4.10;;;21.60;88.50;;;;;;5101683;28;20444;-73
2022/10/18 12:01:02;;;;;;;6.40;4.30;;;21.50;86.60;;;;;;5106061;28;20771;-74
2022/10/18 12:03:53;;;;;;;4.97;4.30;;;21.50;87.30;;;;;;5093801;28;20440;-72
2022/10/18 12:06:23;;;;;;;4.33;4.03;;;21.50;85.80;;;;;;5099364;28;20804;-72
2022/10/18 12:08:55;;;;;;;8.80;5.20;;;21.50;85.10;;;;;;5105806;28;20424;-74
2022/10/18 12:11:28;;;;;;;4.83;4.30;;;21.50;85.70;;;;;;5100423;28;21232;-75
2022/10/18 12:13:56;;;;;;;3.73;3.40;;;21.50;84.80;;;;;;5099700;28;20432;-72
2022/10/18 12:16:26;;;;;;;4.90;3.60;;;21.50;84.80;;;;;;5102813;28;20467;-74
2022/10/18 12:19:06;;;;;;;4.70;4.30;;;21.50;84.30;;;;;;5103606;28;20534;-72
2022/10/18 12:21:33;;;;;;;4.63;4.20;;;21.50;84.30;;;;;;5103026;28;20503;-74
2022/10/18 12:24:04;;;;;;;3.90;3.50;;;21.40;84.30;;;;;;5113144;28;20495;-74
2022/10/18 12:26:32;;;;;;;4.20;3.80;;;21.50;83.60;;;;;;5128045;28;20442;-72
2022/10/18 12:29:03;;;;;;;4.87;4.10;;;21.50;84.70;;;;;;5127226;28;20460;-72
2022/10/18 12:31:50;;;;;;;4.20;3.77;;;21.50;85.00;;;;;;5125668;28;20516;-72
2022/10/18 12:34:22;;;;;;;8.40;4.10;;;21.50;85.30;;;;;;5109794;28;20461;-72
2022/10/18 12:36:53;;;;;;;4.73;4.33;;;21.60;85.20;;;;;;5108014;28;20519;-73
2022/10/18 12:39:43;;;;;;;4.77;4.23;;;21.60;83.60;;;;;;5124986;27;20648;-72
2022/10/18 12:42:21;;;;;;;5.93;4.37;;;21.60;83.80;;;;;;5119397;28;20420;-74
2022/10/18 12:44:48;;;;;;;6.27;4.77;;;21.60;84.40;;;;;;5120802;28;20531;-73
2022/10/18 12:47:24;;;;;;;4.67;4.20;;;21.60;84.50;;;;;;5107312;28;20867;-73
2022/10/18 12:49:57;;;;;;;4.40;4.00;;;21.70;85.30;;;;;;5108792;28;20435;-72
2022/10/18 12:52:25;;;;;;;5.80;4.53;;;21.70;85.80;;;;;;5122747;28;20518;-72